Time;durP1;ratioP1;P1;durP2;ratioP2;P2;SDS_P1;SDS_P2;PMS_P1;PMS_P2;Temp;Humidity;BMP_temperature;BMP_pressure;BME280_temperature;BME280_humidity;BME280_pressure;Samples;Min_cycle;Max_cycle;Signal;HPM_P1;HPM_P2
2020/12/14 05:00:28;;;;;;;19.90;11.00;;;4.60;99.90;;;;;;5916574;23;20202;-68
2020/12/14 05:02:55;;;;;;;23.30;15.35;;;4.60;99.90;;;;;;4952286;29;20647;-68
2020/12/14 05:05:22;;;;;;;26.85;14.57;;;4.60;99.90;;;;;;4966947;28;20207;-68
2020/12/14 05:07:48;;;;;;;23.10;14.48;;;4.60;99.90;;;;;;4972303;28;20667;-68
2020/12/14 05:10:15;;;;;;;24.63;14.38;;;4.60;99.90;;;;;;4972667;28;20247;-68
2020/12/14 05:12:42;;;;;;;24.38;14.32;;;4.60;99.90;;;;;;4971009;28;20271;-68
2020/12/14 05:15:17;;;;;;;19.20;14.07;;;4.60;99.90;;;;;;4957736;28;20924;-68
2020/12/14 05:17:44;;;;;;;24.40;14.68;;;4.60;99.90;;;;;;4972293;28;20630;-68
2020/12/14 05:20:14;;;;;;;24.85;15.05;;;4.60;99.90;;;;;;4970964;28;20212;-68
2020/12/14 05:22:55;;;;;;;19.85;14.30;;;4.60;99.90;;;;;;4972333;28;20208;-68
2020/12/14 05:25:21;;;;;;;22.70;13.70;;;4.60;99.90;;;;;;4972498;28;20263;-68
2020/12/14 05:27:47;;;;;;;25.13;14.60;;;4.60;99.90;;;;;;4972435;28;20585;-68
2020/12/14 05:30:14;;;;;;;21.98;13.57;;;4.60;99.90;;;;;;4971585;28;20343;-68
2020/12/14 05:32:40;;;;;;;21.02;13.63;;;4.60;99.90;;;;;;4971865;28;20227;-68
2020/12/14 05:35:11;;;;;;;18.25;12.55;;;4.70;99.90;;;;;;4972246;28;20204;-68
2020/12/14 05:37:38;;;;;;;26.02;13.43;;;4.70;99.90;;;;;;4972091;28;20227;-68
2020/12/14 05:40:10;;;;;;;22.92;13.75;;;4.70;99.90;;;;;;4971841;28;20235;-68
2020/12/14 05:42:41;;;;;;;21.80;14.48;;;4.80;99.90;;;;;;4969276;28;20214;-68
2020/12/14 05:45:11;;;;;;;16.40;10.40;;;4.80;99.90;;;;;;4972653;28;20303;-68
2020/12/14 05:47:41;;;;;;;20.05;12.15;;;4.80;99.90;;;;;;4961310;28;20216;-68
2020/12/14 05:50:09;;;;;;;19.55;13.18;;;4.80;99.90;;;;;;4971927;28;20264;-68
2020/12/14 05:52:40;;;;;;;22.25;12.05;;;4.80;99.90;;;;;;4972188;28;20228;-68
2020/12/14 05:55:09;;;;;;;11.13;7.40;;;4.80;99.90;;;;;;4973099;28;20220;-69
2020/12/14 05:57:36;;;;;;;22.20;13.48;;;4.80;99.90;;;;;;4971603;28;20213;-68
2020/12/14 06:00:05;;;;;;;18.48;12.15;;;4.90;99.90;;;;;;4973218;28;20205;-69
2020/12/14 06:02:32;;;;;;;20.90;12.13;;;4.90;99.90;;;;;;4975916;28;20291;-69
2020/12/14 06:05:02;;;;;;;19.30;12.25;;;4.90;99.90;;;;;;4976487;28;20263;-68
2020/12/14 06:07:29;;;;;;;20.13;11.50;;;4.90;99.90;;;;;;4975479;28;20200;-68
2020/12/14 06:10:10;;;;;;;18.40;11.40;;;4.90;99.90;;;;;;4976459;28;20240;-68
2020/12/14 06:12:38;;;;;;;15.35;11.40;;;4.90;99.90;;;;;;4976017;28;20220;-69
2020/12/14 06:15:08;;;;;;;16.13;11.00;;;4.90;99.90;;;;;;4979685;28;20212;-69
2020/12/14 06:17:35;;;;;;;16.73;10.30;;;4.90;99.90;;;;;;4977112;28;20357;-69
2020/12/14 06:20:06;;;;;;;15.20;11.27;;;4.90;99.90;;;;;;4979786;28;20204;-69
2020/12/14 06:22:33;;;;;;;14.75;10.30;;;4.90;99.90;;;;;;4980638;28;20252;-68
2020/12/14 06:25:01;;;;;;;16.08;10.65;;;4.90;99.90;;;;;;4980700;28;20205;-68
2020/12/14 06:27:29;;;;;;;16.30;12.30;;;4.90;99.90;;;;;;4981706;28;20213;-68
2020/12/14 06:29:55;;;;;;;14.85;11.20;;;5.00;99.90;;;;;;4979576;28;20212;-67
2020/12/14 06:32:39;;;;;;;14.15;10.23;;;5.00;99.90;;;;;;4979422;28;20228;-68
2020/12/14 06:35:06;;;;;;;20.88;12.18;;;5.00;99.90;;;;;;4980076;28;20625;-68
2020/12/14 06:37:47;;;;;;;14.88;10.30;;;5.00;99.90;;;;;;4978418;28;20208;-68
2020/12/14 06:40:13;;;;;;;19.00;10.75;;;5.10;99.90;;;;;;4980588;28;20197;-67
2020/12/14 06:42:40;;;;;;;13.65;10.38;;;5.10;99.90;;;;;;4979622;28;20208;-68
2020/12/14 06:45:10;;;;;;;10.15;9.05;;;5.10;99.90;;;;;;4980818;28;20224;-67
2020/12/14 06:47:44;;;;;;;16.23;10.77;;;5.10;99.90;;;;;;4980438;28;20204;-68
2020/12/14 06:50:31;;;;;;;15.75;10.75;;;5.20;99.90;;;;;;4974773;28;20209;-68
2020/12/14 06:52:58;;;;;;;14.68;8.77;;;5.10;99.90;;;;;;4956005;28;20240;-67
2020/12/14 06:55:44;;;;;;;11.75;8.88;;;5.20;99.90;;;;;;4964079;28;20263;-67
2020/12/14 06:58:27;;;;;;;13.38;9.68;;;5.20;99.90;;;;;;4974666;28;20216;-67
2020/12/14 07:00:53;;;;;;;14.45;9.80;;;5.20;99.90;;;;;;4970797;28;20240;-67
2020/12/14 07:03:29;;;;;;;12.40;8.57;;;5.20;99.90;;;;;;4975077;28;20319;-67
2020/12/14 07:06:00;;;;;;;11.23;9.23;;;5.20;99.90;;;;;;4974412;28;20266;-67
2020/12/14 07:08:36;;;;;;;12.20;9.20;;;5.20;99.90;;;;;;4974479;28;20266;-67
2020/12/14 07:11:13;;;;;;;12.25;8.55;;;5.20;99.90;;;;;;4974503;28;20239;-68
2020/12/14 07:13:41;;;;;;;9.75;8.73;;;5.20;99.90;;;;;;4973832;28;20572;-67
2020/12/14 07:16:09;;;;;;;13.68;9.57;;;5.20;99.90;;;;;;4974581;28;20575;-67
2020/12/14 07:18:36;;;;;;;11.18;8.88;;;5.20;99.90;;;;;;4974386;28;20623;-67
2020/12/14 07:21:07;;;;;;;11.13;9.15;;;5.30;99.90;;;;;;4973836;28;20275;-67
2020/12/14 07:23:35;;;;;;;27.10;17.17;;;5.30;99.90;;;;;;4974300;28;20247;-67
2020/12/14 07:26:02;;;;;;;12.93;9.55;;;5.30;99.90;;;;;;4973431;28;20196;-67
2020/12/14 07:28:51;;;;;;;12.90;8.25;;;5.30;99.90;;;;;;4974231;28;20208;-67
2020/12/14 07:31:18;;;;;;;14.45;10.63;;;5.20;99.90;;;;;;4960721;28;20283;-67
2020/12/14 07:33:53;;;;;;;10.05;8.65;;;5.20;99.90;;;;;;4972856;28;20199;-67
2020/12/14 07:36:20;;;;;;;3.88;3.47;;;5.30;99.90;;;;;;4973910;28;20262;-67
2020/12/14 07:38:48;;;;;;;10.23;8.82;;;5.30;99.90;;;;;;4973696;28;20283;-67
2020/12/14 07:41:14;;;;;;;16.23;9.65;;;5.30;99.90;;;;;;4972124;28;20230;-67
2020/12/14 07:43:42;;;;;;;11.10;8.25;;;5.30;99.90;;;;;;4960799;28;20208;-66
2020/12/14 07:46:23;;;;;;;18.38;10.77;;;5.30;99.90;;;;;;4968774;28;20201;-67
2020/12/14 07:48:54;;;;;;;10.07;7.35;;;5.30;99.90;;;;;;4973173;28;20271;-68
2020/12/14 07:51:20;;;;;;;11.23;9.20;;;5.40;99.90;;;;;;4973366;28;20283;-68
2020/12/14 07:53:47;;;;;;;8.38;7.32;;;5.40;99.90;;;;;;4972912;28;20217;-68
2020/12/14 07:56:14;;;;;;;9.80;8.80;;;5.40;99.90;;;;;;4972081;28;20669;-68
2020/12/14 07:58:45;;;;;;;11.13;8.80;;;5.40;99.90;;;;;;4967451;28;20241;-67
2020/12/14 08:01:15;;;;;;;9.50;7.28;;;5.40;99.90;;;;;;4971782;28;20374;-68
2020/12/14 08:03:42;;;;;;;11.93;8.40;;;5.50;99.90;;;;;;4968909;28;20216;-67
2020/12/14 08:06:16;;;;;;;11.45;8.38;;;5.50;99.90;;;;;;4972211;28;20216;-68
2020/12/14 08:08:46;;;;;;;12.60;9.27;;;5.60;99.90;;;;;;4973631;28;20215;-68
2020/12/14 08:11:14;;;;;;;10.73;9.02;;;5.70;99.90;;;;;;4973682;28;20295;-67
2020/12/14 08:13:42;;;;;;;9.85;8.65;;;5.70;99.90;;;;;;4971857;28;20331;-67
2020/12/14 08:16:09;;;;;;;9.23;8.30;;;5.70;99.90;;;;;;4972483;28;20204;-68
2020/12/14 08:18:35;;;;;;;8.63;7.75;;;5.80;99.90;;;;;;4972094;28;20220;-67
2020/12/14 08:21:02;;;;;;;10.85;8.57;;;5.80;99.90;;;;;;4971633;28;20271;-67
2020/12/14 08:23:30;;;;;;;8.45;7.55;;;5.80;99.90;;;;;;4967949;28;20225;-66
2020/12/14 08:25:56;;;;;;;6.85;6.20;;;5.90;99.90;;;;;;4967991;28;20366;-67
2020/12/14 08:28:29;;;;;;;9.00;8.10;;;5.90;99.90;;;;;;4971991;28;20641;-67
2020/12/14 08:30:56;;;;;;;8.88;7.30;;;6.00;99.90;;;;;;4973222;28;20233;-66
2020/12/14 08:33:22;;;;;;;7.82;7.05;;;6.00;99.90;;;;;;4972868;28;20221;-66
2020/12/14 08:35:50;;;;;;;7.57;6.88;;;6.00;99.90;;;;;;4970550;28;20216;-67
2020/12/14 08:38:19;;;;;;;8.57;7.18;;;6.00;99.90;;;;;;4972317;28;20563;-66
2020/12/14 08:40:54;;;;;;;8.73;7.85;;;6.00;99.90;;;;;;4971385;28;20240;-66
2020/12/14 08:43:21;;;;;;;7.93;7.18;;;6.10;99.90;;;;;;4972024;28;20208;-67
2020/12/14 08:45:59;;;;;;;7.45;6.32;;;6.10;99.90;;;;;;4972518;28;20216;-67
2020/12/14 08:48:25;;;;;;;8.32;7.13;;;6.10;99.90;;;;;;4971512;28;20263;-67
2020/12/14 08:51:03;;;;;;;10.50;9.30;;;6.20;99.90;;;;;;4971688;28;20336;-67
2020/12/14 08:53:30;;;;;;;8.00;7.05;;;6.20;99.90;;;;;;4970404;28;20220;-67
2020/12/14 08:56:02;;;;;;;7.65;6.90;;;6.30;99.90;;;;;;4972534;28;20959;-67
2020/12/14 08:58:29;;;;;;;9.50;7.88;;;6.30;99.90;;;;;;4970629;28;20564;-67
2020/12/14 09:00:55;;;;;;;6.65;6.05;;;6.30;99.90;;;;;;4969726;28;20244;-66
2020/12/14 09:03:21;;;;;;;6.20;5.53;;;6.40;99.90;;;;;;4972085;28;20197;-66
2020/12/14 09:05:47;;;;;;;6.70;6.15;;;6.40;99.90;;;;;;4971590;28;20271;-67
2020/12/14 09:08:15;;;;;;;6.82;6.20;;;6.40;99.90;;;;;;4971846;28;20208;-67
2020/12/14 09:10:55;;;;;;;7.20;5.18;;;6.40;99.90;;;;;;4972668;28;20236;-67
2020/12/14 09:13:22;;;;;;;6.80;6.20;;;6.50;99.90;;;;;;4972254;28;20579;-67
2020/12/14 09:15:53;;;;;;;7.35;6.70;;;6.50;99.90;;;;;;4972048;28;20650;-67
2020/12/14 09:18:20;;;;;;;8.18;7.05;;;6.50;99.90;;;;;;4972058;28;20631;-67
2020/12/14 09:20:46;;;;;;;7.07;6.40;;;6.50;99.90;;;;;;4971502;28;20231;-67
2020/12/14 09:23:18;;;;;;;6.47;5.97;;;6.50;99.90;;;;;;4972174;28;20279;-68
2020/12/14 09:25:45;;;;;;;8.25;6.68;;;6.50;99.90;;;;;;4970847;28;20696;-67
2020/12/14 09:28:11;;;;;;;7.60;6.30;;;6.60;99.90;;;;;;4970473;28;20657;-69
2020/12/14 09:30:37;;;;;;;10.80;9.35;;;6.70;99.90;;;;;;4969674;28;20615;-69
2020/12/14 09:33:03;;;;;;;9.23;8.30;;;6.70;99.90;;;;;;4969924;28;20354;-70
2020/12/14 09:35:29;;;;;;;6.60;6.00;;;6.80;99.90;;;;;;4971935;28;20204;-69
2020/12/14 09:37:55;;;;;;;10.15;8.52;;;6.80;99.90;;;;;;4975157;28;20259;-70
2020/12/14 09:40:21;;;;;;;5.80;5.35;;;6.90;99.90;;;;;;4973451;28;20205;-68
2020/12/14 09:42:48;;;;;;;7.15;6.47;;;6.90;99.90;;;;;;4976906;28;20271;-69
2020/12/14 09:45:15;;;;;;;5.40;5.00;;;6.90;99.90;;;;;;4977661;28;20819;-68
2020/12/14 09:47:44;;;;;;;4.65;4.30;;;7.00;99.90;;;;;;4977577;28;20212;-68
2020/12/14 09:50:10;;;;;;;5.60;5.10;;;7.00;99.90;;;;;;4977179;28;20323;-68
2020/12/14 09:52:36;;;;;;;6.65;6.05;;;7.00;99.90;;;;;;4976040;28;20286;-69
2020/12/14 09:55:03;;;;;;;5.80;5.30;;;7.00;99.90;;;;;;4975413;28;20626;-67
2020/12/14 09:57:30;;;;;;;6.57;6.07;;;7.10;99.90;;;;;;4974609;28;20231;-68
2020/12/14 09:59:57;;;;;;;5.57;5.05;;;7.10;99.90;;;;;;4976017;28;20259;-67
2020/12/14 10:02:23;;;;;;;6.35;5.82;;;7.10;99.90;;;;;;4974924;28;20299;-68
2020/12/14 10:04:49;;;;;;;4.97;4.65;;;7.20;99.90;;;;;;4975974;28;20251;-69
2020/12/14 10:07:15;;;;;;;6.22;5.68;;;7.20;99.90;;;;;;4973911;28;20287;-68
2020/12/14 10:09:41;;;;;;;6.70;6.15;;;7.20;99.90;;;;;;4975212;28;20283;-69
2020/12/14 10:12:08;;;;;;;6.72;6.05;;;7.20;99.90;;;;;;4956559;28;20245;-69
2020/12/14 10:14:34;;;;;;;7.68;4.72;;;7.20;99.90;;;;;;4976175;28;20276;-68
2020/12/14 10:17:01;;;;;;;4.53;3.80;;;7.20;99.90;;;;;;4975096;28;20208;-68
2020/12/14 10:19:27;;;;;;;4.30;4.10;;;7.30;99.90;;;;;;4976223;28;20205;-69
2020/12/14 10:21:53;;;;;;;6.03;3.90;;;7.30;99.90;;;;;;4974701;28;20229;-68
2020/12/14 10:24:20;;;;;;;4.10;3.78;;;7.30;99.90;;;;;;4962627;28;20212;-68
2020/12/14 10:26:49;;;;;;;3.80;3.60;;;7.40;99.90;;;;;;4974788;28;20700;-69
2020/12/14 10:29:17;;;;;;;4.07;3.78;;;7.40;99.90;;;;;;4975953;28;20251;-68
2020/12/14 10:31:44;;;;;;;3.95;3.67;;;7.40;99.90;;;;;;4976297;28;20225;-69
2020/12/14 10:34:11;;;;;;;4.00;3.80;;;7.30;99.90;;;;;;4976944;28;20275;-69
2020/12/14 10:36:37;;;;;;;4.15;3.80;;;7.30;99.90;;;;;;4976263;28;20215;-69
2020/12/14 10:39:03;;;;;;;3.72;3.47;;;7.20;99.90;;;;;;4976612;28;20285;-70
2020/12/14 10:41:29;;;;;;;3.72;3.53;;;7.20;99.90;;;;;;4983292;28;20247;-69
2020/12/14 10:43:55;;;;;;;3.28;3.10;;;7.00;99.90;;;;;;4980301;28;20208;-69
2020/12/14 10:46:24;;;;;;;3.42;3.15;;;6.90;99.90;;;;;;4975476;28;20290;-68
2020/12/14 10:48:50;;;;;;;3.92;3.60;;;6.90;99.90;;;;;;4979180;28;20716;-68
2020/12/14 10:51:17;;;;;;;3.72;3.53;;;6.90;99.90;;;;;;4977418;28;20307;-69
2020/12/14 10:53:43;;;;;;;4.00;3.80;;;6.80;99.90;;;;;;4966852;28;20282;-69
2020/12/14 10:56:10;;;;;;;4.25;3.95;;;6.80;99.90;;;;;;4979996;28;20221;-69
2020/12/14 10:58:36;;;;;;;4.43;4.13;;;6.70;99.90;;;;;;4976158;28;20662;-69
2020/12/14 11:01:02;;;;;;;4.75;4.22;;;6.80;99.90;;;;;;4980504;28;20233;-69
2020/12/14 11:03:28;;;;;;;5.25;4.57;;;6.70;99.90;;;;;;4979974;28;20196;-69
2020/12/14 11:05:55;;;;;;;4.32;4.03;;;6.70;99.90;;;;;;4974024;28;20205;-68
2020/12/14 11:08:22;;;;;;;8.10;7.20;;;6.70;99.90;;;;;;4974221;28;20200;-68
2020/12/14 11:10:48;;;;;;;5.70;5.30;;;6.70;99.90;;;;;;4974114;28;20229;-68
2020/12/14 11:13:14;;;;;;;6.25;5.60;;;6.80;99.90;;;;;;4973187;28;20216;-68
2020/12/14 11:15:41;;;;;;;6.90;6.20;;;6.80;99.90;;;;;;4974181;28;20680;-68
2020/12/14 11:18:07;;;;;;;5.38;4.82;;;6.80;99.90;;;;;;4973080;28;20220;-68
2020/12/14 11:20:33;;;;;;;6.82;4.13;;;6.80;99.90;;;;;;4974645;28;20322;-67
2020/12/14 11:22:59;;;;;;;5.30;4.93;;;6.80;99.90;;;;;;4973661;28;20205;-68
2020/12/14 11:25:26;;;;;;;5.60;5.25;;;6.80;99.90;;;;;;4955492;28;20276;-68
2020/12/14 11:27:52;;;;;;;8.15;5.60;;;6.80;99.90;;;;;;4968678;28;20200;-68
2020/12/14 11:30:18;;;;;;;4.75;4.13;;;6.90;99.90;;;;;;4973760;28;20208;-68
2020/12/14 11:32:44;;;;;;;4.05;3.78;;;6.90;99.90;;;;;;4973176;28;20599;-68
2020/12/14 11:35:10;;;;;;;5.60;4.80;;;6.90;99.90;;;;;;4974179;28;20516;-67
2020/12/14 11:37:36;;;;;;;3.70;3.40;;;6.90;99.90;;;;;;4973762;28;20267;-67
2020/12/14 11:40:05;;;;;;;10.63;6.25;;;7.00;99.90;;;;;;4973972;28;20553;-67
2020/12/14 11:42:32;;;;;;;8.38;6.95;;;7.00;99.90;;;;;;4973306;28;20588;-68
2020/12/14 11:44:58;;;;;;;6.80;5.20;;;7.00;99.90;;;;;;4973524;28;20695;-66
2020/12/14 11:47:24;;;;;;;5.28;4.88;;;7.00;99.90;;;;;;4973759;28;20205;-68
2020/12/14 11:49:50;;;;;;;9.55;8.68;;;7.00;99.90;;;;;;4974126;28;20208;-67
2020/12/14 11:52:16;;;;;;;6.50;5.60;;;7.00;99.90;;;;;;4972879;28;20090;-68
2020/12/14 11:54:42;;;;;;;9.45;7.80;;;7.00;99.90;;;;;;4973726;28;20283;-68
2020/12/14 11:57:08;;;;;;;11.40;7.18;;;7.10;99.90;;;;;;4972898;28;20346;-67
2020/12/14 11:59:35;;;;;;;12.23;9.52;;;7.10;99.90;;;;;;4972596;28;20205;-67
2020/12/14 12:02:02;;;;;;;5.55;5.00;;;7.10;99.90;;;;;;4973234;28;20351;-67
2020/12/14 12:04:28;;;;;;;5.97;5.47;;;7.10;99.90;;;;;;4973529;28;20256;-67
2020/12/14 12:06:54;;;;;;;6.03;5.18;;;7.00;99.90;;;;;;4973098;28;20212;-67
2020/12/14 12:09:20;;;;;;;5.70;5.20;;;7.00;99.90;;;;;;4971919;28;20568;-67
2020/12/14 12:11:46;;;;;;;3.95;3.65;;;7.00;99.90;;;;;;4971595;28;20224;-68
2020/12/14 12:14:12;;;;;;;4.78;4.38;;;7.00;99.90;;;;;;4973748;28;20229;-67
2020/12/14 12:16:43;;;;;;;7.90;5.72;;;7.00;99.90;;;;;;4972972;28;20220;-67
2020/12/14 12:19:09;;;;;;;17.00;6.68;;;7.00;99.90;;;;;;4973048;28;20205;-67
2020/12/14 12:21:35;;;;;;;6.90;6.30;;;7.00;99.90;;;;;;4972923;28;20267;-68
2020/12/14 12:24:01;;;;;;;5.88;5.38;;;7.00;99.90;;;;;;4972721;28;20204;-68
2020/12/14 12:26:27;;;;;;;9.05;6.60;;;7.00;99.90;;;;;;4973921;28;20212;-67
2020/12/14 12:28:53;;;;;;;4.20;4.00;;;7.00;99.90;;;;;;4977004;28;20220;-68
2020/12/14 12:31:20;;;;;;;9.52;7.90;;;7.00;99.90;;;;;;4979117;28;20543;-67
2020/12/14 12:33:46;;;;;;;9.80;8.73;;;7.10;99.90;;;;;;4978606;28;20243;-67
2020/12/14 12:36:13;;;;;;;4.80;4.40;;;7.20;99.90;;;;;;4972883;28;20216;-68
2020/12/14 12:38:39;;;;;;;5.30;4.82;;;7.20;99.90;;;;;;4972679;28;20268;-68
2020/12/14 12:41:05;;;;;;;7.53;6.75;;;7.20;99.90;;;;;;4963416;28;20237;-67
2020/12/14 12:43:31;;;;;;;6.20;5.80;;;7.20;99.90;;;;;;4972908;28;20604;-67
2020/12/14 12:45:57;;;;;;;4.55;4.35;;;7.20;99.90;;;;;;4978426;28;20648;-67
2020/12/14 12:48:23;;;;;;;5.22;4.53;;;7.20;99.90;;;;;;4972463;28;20633;-67
2020/12/14 12:50:53;;;;;;;9.45;7.55;;;7.30;99.90;;;;;;4972844;28;20267;-67
2020/12/14 12:53:21;;;;;;;9.10;6.78;;;7.30;99.90;;;;;;4973003;28;20212;-68
2020/12/14 12:55:47;;;;;;;9.95;6.63;;;7.30;99.90;;;;;;4973924;28;20724;-67
2020/12/14 12:58:13;;;;;;;13.48;7.63;;;7.30;99.90;;;;;;4972407;28;20657;-68
2020/12/14 13:00:40;;;;;;;12.80;9.18;;;7.30;99.90;;;;;;4972128;28;20766;-68
2020/12/14 13:03:06;;;;;;;29.40;14.02;;;7.40;99.90;;;;;;4972768;28;20609;-68
2020/12/14 13:05:32;;;;;;;13.25;7.28;;;7.40;99.90;;;;;;4972014;28;20291;-68
2020/12/14 13:07:59;;;;;;;14.98;8.68;;;7.40;99.90;;;;;;4972665;28;20335;-68
2020/12/14 13:10:26;;;;;;;4.03;3.85;;;7.50;99.90;;;;;;4971900;28;20208;-68
2020/12/14 13:12:52;;;;;;;3.97;3.55;;;7.50;99.90;;;;;;4969941;28;20216;-67
2020/12/14 13:15:18;;;;;;;4.90;4.55;;;7.50;99.90;;;;;;4972066;28;20672;-68
2020/12/14 13:17:44;;;;;;;4.20;3.90;;;7.50;99.90;;;;;;4971932;28;20251;-68
2020/12/14 13:20:11;;;;;;;4.18;3.78;;;7.60;99.90;;;;;;4972804;28;20669;-67
2020/12/14 13:22:37;;;;;;;3.45;3.33;;;7.60;99.90;;;;;;4971753;28;20287;-67
2020/12/14 13:25:04;;;;;;;3.88;3.58;;;7.70;99.90;;;;;;4971829;28;20216;-67
2020/12/14 13:27:31;;;;;;;2.67;2.60;;;7.70;99.90;;;;;;4971240;28;20200;-67
2020/12/14 13:29:57;;;;;;;3.08;2.88;;;7.70;99.90;;;;;;4972825;28;20212;-67
2020/12/14 13:32:23;;;;;;;2.90;2.80;;;7.70;99.90;;;;;;4972616;28;20287;-66
2020/12/14 13:34:49;;;;;;;3.60;2.63;;;7.70;99.90;;;;;;4972086;28;20290;-67
2020/12/14 13:37:15;;;;;;;3.22;3.00;;;7.80;99.90;;;;;;4971168;28;20209;-67
2020/12/14 13:39:41;;;;;;;3.22;2.92;;;7.80;99.90;;;;;;4972909;28;20209;-67
2020/12/14 13:42:08;;;;;;;3.10;2.60;;;7.80;99.90;;;;;;4971624;28;20228;-67
2020/12/14 13:44:34;;;;;;;3.38;3.17;;;7.80;99.90;;;;;;4972088;28;20213;-67
2020/12/14 13:47:02;;;;;;;2.80;2.17;;;7.80;99.90;;;;;;4971717;28;20220;-68
2020/12/14 13:49:28;;;;;;;3.17;2.90;;;7.80;99.90;;;;;;4972352;28;20223;-68
2020/12/14 13:51:56;;;;;;;3.80;3.50;;;7.80;99.90;;;;;;4971502;28;20224;-67
2020/12/14 13:54:22;;;;;;;3.90;3.60;;;7.80;99.90;;;;;;4972428;28;20270;-68
2020/12/14 13:56:48;;;;;;;7.32;6.65;;;7.90;99.90;;;;;;4971095;28;20267;-67
2020/12/14 13:59:15;;;;;;;13.85;9.48;;;7.80;99.90;;;;;;4972131;28;20595;-69
2020/12/14 14:01:41;;;;;;;5.55;5.03;;;7.90;99.90;;;;;;4971514;28;20287;-68
2020/12/14 14:04:08;;;;;;;8.63;6.95;;;7.90;99.90;;;;;;4971760;28;20201;-69
2020/12/14 14:06:34;;;;;;;7.63;6.50;;;7.90;99.90;;;;;;4971268;28;20611;-68
2020/12/14 14:09:00;;;;;;;7.57;5.32;;;7.90;99.90;;;;;;4972060;28;20653;-68
2020/12/14 14:11:26;;;;;;;8.65;7.00;;;7.90;99.90;;;;;;4972095;28;20220;-68
2020/12/14 14:13:52;;;;;;;4.40;3.65;;;7.90;99.90;;;;;;4971095;28;20704;-67
2020/12/14 14:16:19;;;;;;;17.65;12.25;;;8.00;99.90;;;;;;4970206;28;20204;-68
2020/12/14 14:18:45;;;;;;;7.78;6.07;;;8.00;99.90;;;;;;4971307;28;20224;-68
2020/12/14 14:21:14;;;;;;;8.73;6.38;;;8.00;99.90;;;;;;4971765;28;20320;-67
2020/12/14 14:23:41;;;;;;;5.40;4.90;;;8.00;99.90;;;;;;4975200;28;20259;-67
2020/12/14 14:26:07;;;;;;;6.40;5.32;;;8.00;99.90;;;;;;4975688;28;20727;-68
2020/12/14 14:28:33;;;;;;;12.18;9.48;;;8.00;99.90;;;;;;4974787;28;20267;-67
2020/12/14 14:30:59;;;;;;;15.55;9.75;;;8.10;99.90;;;;;;4974948;28;20307;-68
2020/12/14 14:33:26;;;;;;;14.18;8.75;;;8.10;99.90;;;;;;4974417;28;20224;-67
2020/12/14 14:35:52;;;;;;;38.67;20.75;;;8.10;99.90;;;;;;4974866;28;20204;-67
2020/12/14 14:38:18;;;;;;;12.80;8.70;;;8.10;99.90;;;;;;4974912;28;20212;-67
2020/12/14 14:40:44;;;;;;;6.60;5.30;;;8.10;99.90;;;;;;4975422;28;20324;-68
2020/12/14 14:43:13;;;;;;;4.70;4.40;;;8.10;99.90;;;;;;4974346;28;20279;-67
2020/12/14 14:45:39;;;;;;;3.72;3.55;;;8.20;99.90;;;;;;4974690;28;20653;-67
2020/12/14 14:48:05;;;;;;;5.10;4.60;;;8.20;99.90;;;;;;4974575;28;20204;-67
2020/12/14 14:50:32;;;;;;;16.80;11.95;;;8.20;99.90;;;;;;4975807;28;20275;-67
2020/12/14 14:52:58;;;;;;;7.00;5.43;;;8.20;99.90;;;;;;4974447;28;20231;-68
2020/12/14 14:55:24;;;;;;;13.70;9.50;;;8.20;99.90;;;;;;4974531;28;20213;-69
2020/12/14 14:57:51;;;;;;;21.63;14.95;;;8.30;99.90;;;;;;4974495;28;20566;-68
2020/12/14 15:00:17;;;;;;;17.58;10.88;;;8.20;99.90;;;;;;4974797;28;20622;-68
2020/12/14 15:02:43;;;;;;;16.27;12.32;;;8.20;99.90;;;;;;4973956;28;20275;-67
2020/12/14 15:05:09;;;;;;;8.75;7.45;;;8.20;99.90;;;;;;4974420;28;20216;-67
2020/12/14 15:07:36;;;;;;;27.45;17.20;;;8.20;99.90;;;;;;4974045;28;20217;-67
2020/12/14 15:10:03;;;;;;;4.43;4.03;;;8.20;99.90;;;;;;4975040;28;20271;-66
2020/12/14 15:12:29;;;;;;;41.72;22.95;;;8.20;99.90;;;;;;4974104;28;20719;-67
2020/12/14 15:14:55;;;;;;;37.47;22.55;;;8.20;99.90;;;;;;4973767;28;20204;-66
2020/12/14 15:17:21;;;;;;;10.90;8.57;;;8.10;99.90;;;;;;4964386;28;20212;-67
2020/12/14 15:19:47;;;;;;;20.90;14.18;;;8.10;99.90;;;;;;4975119;28;20208;-67
2020/12/14 15:22:14;;;;;;;3.50;3.30;;;8.10;99.90;;;;;;4973787;28;20260;-67
2020/12/14 15:24:42;;;;;;;18.67;13.30;;;8.20;99.90;;;;;;4972573;28;20263;-68
2020/12/14 15:27:08;;;;;;;14.65;9.32;;;8.20;99.90;;;;;;4972321;28;20580;-67
2020/12/14 15:29:34;;;;;;;19.80;11.85;;;8.20;99.90;;;;;;4974217;28;20656;-67
2020/12/14 15:32:00;;;;;;;33.35;18.77;;;8.20;99.90;;;;;;4974395;28;20236;-67
2020/12/14 15:34:29;;;;;;;8.52;5.60;;;8.20;99.90;;;;;;4974443;28;20224;-67
2020/12/14 15:36:57;;;;;;;19.25;13.05;;;8.20;99.90;;;;;;4976674;28;20224;-67
2020/12/14 15:39:36;;;;;;;12.20;8.80;;;8.20;99.90;;;;;;4975888;28;20291;-67
2020/12/14 15:42:03;;;;;;;20.38;13.63;;;8.20;99.90;;;;;;4972893;28;20289;-66
2020/12/14 15:44:37;;;;;;;9.23;8.27;;;8.30;99.90;;;;;;4977493;28;20200;-68
2020/12/14 15:47:04;;;;;;;6.40;5.90;;;8.30;99.90;;;;;;4982401;28;20212;-68
2020/12/14 15:49:33;;;;;;;11.38;8.90;;;8.30;99.90;;;;;;4982417;28;20209;-68
2020/12/14 15:52:04;;;;;;;9.40;6.45;;;8.30;99.90;;;;;;4977470;28;20585;-68
2020/12/14 15:54:31;;;;;;;8.60;7.30;;;8.30;99.90;;;;;;4976074;28;20670;-67
2020/12/14 15:57:02;;;;;;;8.93;7.93;;;8.30;99.90;;;;;;4973239;28;20217;-68
2020/12/14 15:59:34;;;;;;;17.17;12.57;;;8.30;99.90;;;;;;4975274;28;20200;-68
2020/12/14 16:02:01;;;;;;;7.80;7.20;;;8.30;99.90;;;;;;4974132;28;20603;-67
2020/12/14 16:04:27;;;;;;;15.32;10.23;;;8.30;99.90;;;;;;4973495;28;20200;-69
2020/12/14 16:06:53;;;;;;;18.23;14.00;;;8.30;99.90;;;;;;4972823;28;20208;-67
2020/12/14 16:09:19;;;;;;;22.73;13.65;;;8.30;99.90;;;;;;4973586;28;20209;-67
2020/12/14 16:11:45;;;;;;;4.50;4.20;;;8.30;99.90;;;;;;4973457;28;20236;-68
2020/12/14 16:14:12;;;;;;;4.68;4.40;;;8.30;99.90;;;;;;4973584;28;20233;-67
2020/12/14 16:16:39;;;;;;;26.85;19.08;;;8.30;99.90;;;;;;4973380;28;20287;-67
2020/12/14 16:19:05;;;;;;;8.95;8.07;;;8.30;99.90;;;;;;4973528;28;20645;-67
2020/12/14 16:21:32;;;;;;;13.70;9.10;;;8.30;99.90;;;;;;4973052;28;20237;-69
2020/12/14 16:23:58;;;;;;;28.30;20.05;;;8.30;99.90;;;;;;4972863;28;20292;-67
2020/12/14 16:26:24;;;;;;;28.50;18.15;;;8.30;99.90;;;;;;4972962;28;20213;-67
2020/12/14 16:28:51;;;;;;;3.83;3.63;;;8.30;99.90;;;;;;4972259;28;20209;-67
2020/12/14 16:31:17;;;;;;;5.63;5.00;;;8.30;99.90;;;;;;4973088;28;20278;-67
2020/12/14 16:33:44;;;;;;;5.97;5.45;;;8.30;99.90;;;;;;4970292;28;20216;-67
2020/12/14 16:36:10;;;;;;;3.30;3.20;;;8.30;99.90;;;;;;4969754;28;20216;-68
2020/12/14 16:38:36;;;;;;;5.07;3.50;;;8.30;99.90;;;;;;4970108;28;20240;-68
2020/12/14 16:41:02;;;;;;;3.97;3.60;;;8.30;99.90;;;;;;4970879;28;20224;-69
2020/12/14 16:43:28;;;;;;;3.15;2.90;;;8.30;99.90;;;;;;4969376;28;20205;-69
2020/12/14 16:45:55;;;;;;;5.43;4.32;;;8.30;99.90;;;;;;4971644;28;20215;-68
2020/12/14 16:48:21;;;;;;;14.80;11.90;;;8.30;99.90;;;;;;4971200;28;20204;-67
2020/12/14 16:50:48;;;;;;;4.85;4.65;;;8.30;99.90;;;;;;4971271;28;20259;-68
2020/12/14 16:53:14;;;;;;;3.50;3.30;;;8.30;99.90;;;;;;4972980;28;20614;-68
2020/12/14 16:55:40;;;;;;;11.18;8.50;;;8.30;99.90;;;;;;4972270;28;20303;-68
2020/12/14 16:58:06;;;;;;;5.65;5.15;;;8.30;99.90;;;;;;4972980;28;20620;-69
2020/12/14 17:00:32;;;;;;;7.60;6.93;;;8.40;99.90;;;;;;4971853;28;20761;-67
2020/12/14 17:02:59;;;;;;;12.23;8.35;;;8.40;99.90;;;;;;4963596;28;20231;-69
2020/12/14 17:05:26;;;;;;;7.82;7.10;;;8.40;99.90;;;;;;4972129;28;20209;-69
2020/12/14 17:07:54;;;;;;;4.07;3.78;;;8.40;99.90;;;;;;4972286;28;20208;-69
2020/12/14 17:10:23;;;;;;;4.97;4.57;;;8.40;99.90;;;;;;4972589;28;20593;-68
2020/12/14 17:12:50;;;;;;;5.95;5.65;;;8.40;99.90;;;;;;4971525;28;20213;-69
2020/12/14 17:15:17;;;;;;;6.13;5.72;;;8.40;99.90;;;;;;4972661;28;20613;-69
2020/12/14 17:17:43;;;;;;;9.70;8.90;;;8.50;99.90;;;;;;4972524;28;20212;-69
2020/12/14 17:20:10;;;;;;;8.20;7.50;;;8.50;99.90;;;;;;4972233;28;20288;-69
2020/12/14 17:22:38;;;;;;;7.65;7.05;;;8.50;99.90;;;;;;4970572;28;20212;-69
2020/12/14 17:25:06;;;;;;;6.35;5.95;;;8.40;99.90;;;;;;4972465;28;20449;-69
2020/12/14 17:27:32;;;;;;;3.50;3.28;;;8.50;99.90;;;;;;4972609;28;20255;-67
2020/12/14 17:29:58;;;;;;;3.65;3.35;;;8.50;99.90;;;;;;4971968;28;20201;-67
2020/12/14 17:32:24;;;;;;;5.90;5.35;;;8.50;99.90;;;;;;4971081;28;20677;-67
2020/12/14 17:34:52;;;;;;;4.10;3.80;;;8.40;99.90;;;;;;4972948;28;20224;-68
2020/12/14 17:37:18;;;;;;;5.97;5.50;;;8.50;99.90;;;;;;4971856;28;20208;-68
2020/12/14 17:39:45;;;;;;;4.70;4.30;;;8.40;99.90;;;;;;4972925;28;20363;-68
2020/12/14 17:42:12;;;;;;;4.90;4.50;;;8.40;99.90;;;;;;4970890;28;20228;-68
2020/12/14 17:44:39;;;;;;;4.10;3.42;;;8.40;99.90;;;;;;4973266;28;20267;-68
2020/12/14 17:47:05;;;;;;;3.85;3.55;;;8.50;99.90;;;;;;4972900;28;20212;-69
2020/12/14 17:49:31;;;;;;;5.60;5.03;;;8.50;99.90;;;;;;4971929;28;20264;-66
2020/12/14 17:51:58;;;;;;;7.60;3.38;;;8.50;99.90;;;;;;4972111;28;20279;-66